Latest Weather Observations for Thargomindah

IDQ60801

Issued at 11:02 am EST Friday 24 February 2017 (issued every 30 minutes, with the page automatically refreshed every 10 minutes)

About weather observations | Map of weather stations | Latest weather observations for QLD | Other Formats
Station Details ID: 045025 Name: THARGOMINDAH AIRPORT Lat: -27.99 Lon: 143.81 Height: 130.89 m
Data from the previous 72 hours. | See also: Recent months at Thargomindah
Date/Time
EST
Temp
°C
App
Temp
°C
Dew
Point
°C
Rel
Hum
%
Delta-T
°C
Wind Press
QNH
hPa
Press
MSL
hPa
Rain since
9am
mm
Dir  Spd
km/h
Gust
km/h
Spd
kts
Gust
kts
24/11:00am 36.8 35.8 12.3 23 14.8 SE 9 17 5 9 1016.4 - 0.0
24/10:30am 36.0 34.6 12.2 23 14.3 ESE 11 17 6 9 1016.8 - 0.0
24/10:00am 34.9 33.4 11.9 24 13.7 E 11 19 6 10 1017.0 - 0.0
24/09:30am 34.1 32.2 11.9 26 13.2 E 13 19 7 10 1017.0 - 0.0
24/09:00am 32.6 30.2 10.0 25 13.0 E 13 17 7 9 1016.9 - 0.0
24/08:30am 31.6 29.0 9.2 25 12.7 SE 13 17 7 9 1016.9 - 0.0
24/08:00am 30.8 28.1 7.3 23 12.8 ESE 11 15 6 8 1016.7 - 0.0
24/07:30am 29.6 26.1 5.6 22 12.7 SE 13 17 7 9 1016.5 - 0.0
24/07:00am 28.6 27.0 8.8 29 11.0 SE 7 11 4 6 1016.3 - 0.0
24/06:30am 27.9 26.3 10.1 33 10.0 ESE 9 11 5 6 1015.7 - 0.0
24/06:00am 28.0 25.8 9.3 31 10.4 SE 11 15 6 8 1015.3 - 0.0
24/05:30am 28.4 26.8 10.1 32 10.3 SE 9 11 5 6 1014.8 - 0.0
24/05:00am 28.8 27.7 10.5 32 10.4 SE 7 9 4 5 1014.4 - 0.0
24/04:30am 29.5 27.5 10.1 30 11.0 SE 11 11 6 6 1014.1 - 0.0
24/04:00am 30.3 28.6 9.8 28 11.6 E 9 15 5 8 1013.8 - 0.0
24/03:30am 31.5 28.7 8.5 24 12.9 ESE 13 19 7 10 1013.7 - 0.0
24/03:00am 32.1 29.1 7.7 22 13.5 ESE 13 20 7 11 1013.7 - 0.0
24/02:30am 32.3 30.3 8.5 23 13.3 SSW 9 17 5 9 1013.9 - 0.0
24/02:00am 33.0 30.2 8.5 22 13.8 SE 13 17 7 9 1013.9 - 0.0
24/01:30am 33.5 30.2 8.2 21 14.2 S 15 20 8 11 1014.2 - 0.0
24/01:00am 33.7 30.7 7.6 20 14.5 S 13 20 7 11 1014.0 - 0.0
24/12:30am 32.5 28.2 3.5 16 15.0 S 15 22 8 12 1013.9 - 0.0
24/12:00am 33.2 29.2 4.9 17 15.1 E 15 20 8 11 1013.9 - 0.0
 
Date/Time
EST
Temp
°C
App
Temp
°C
Dew
Point
°C
Rel
Hum
%
Delta-T
°C
Wind Press
QNH
hPa
Press
MSL
hPa
Rain since
9am
mm
Dir  Spd
km/h
Gust
km/h
Spd
kts
Gust
kts
23/11:30pm 31.5 27.7 1.8 15 14.9 E 11 15 6 8 1014.1 - 0.0
23/11:00pm 32.0 28.9 1.2 14 15.3 E 7 9 4 5 1014.1 - 0.0
23/10:30pm 32.9 29.5 1.9 14 15.7 E 9 11 5 6 1014.1 - 0.0
23/10:00pm 33.4 30.6 3.3 15 15.6 ESE 7 9 4 5 1014.1 - 0.0
23/09:30pm 33.7 30.8 1.5 13 16.3 E 6 7 3 4 1014.0 - 0.0
23/09:00pm 35.0 31.9 1.4 12 17.1 E 7 9 4 5 1013.9 - 0.0
23/08:30pm 36.1 32.8 2.2 12 17.6 E 9 11 5 6 1013.7 - 0.0
23/08:00pm 37.2 34.2 1.8 11 18.3 ESE 7 9 4 5 1013.6 - 0.0
23/07:30pm 38.7 35.5 3.0 11 19.0 ESE 9 11 5 6 1013.2 - 0.0
23/07:00pm 39.4 36.1 2.2 10 19.6 SE 9 15 5 8 1012.8 - 0.0
23/06:30pm 39.9 35.6 1.1 9 20.2 S 13 20 7 11 1012.4 - 0.0
23/06:00pm 40.8 35.9 1.7 9 20.6 S 17 26 9 14 1012.2 - 0.0
23/05:30pm 41.2 37.4 2.0 9 20.8 SSW 11 20 6 11 1012.0 - 0.0
23/05:00pm 41.2 37.4 2.0 9 20.8 SW 11 19 6 10 1012.0 - 0.0
23/04:30pm 41.2 37.8 2.0 9 20.8 S 9 17 5 9 1012.2 - 0.0
23/04:00pm 40.8 36.6 1.7 9 20.6 S 13 20 7 11 1012.3 - 0.0
23/03:30pm 40.7 36.9 1.7 9 20.6 NE 11 17 6 9 1012.4 - 0.0
23/03:00pm 41.0 37.6 1.9 9 20.7 WSW 9 20 5 11 1012.8 - 0.0
23/02:30pm 40.7 36.9 1.7 9 20.6 SSE 11 20 6 11 1013.2 - 0.0
23/02:00pm 39.9 37.0 2.5 10 19.9 W 7 15 4 8 1013.5 - 0.0
23/01:30pm 40.5 36.4 4.3 11 19.8 WNW 15 20 8 11 1013.8 - 0.0
23/01:00pm 39.7 36.2 3.7 11 19.5 WSW 11 20 6 11 1014.1 - 0.0
23/12:30pm 40.3 35.8 4.2 11 19.7 NW 17 22 9 12 1014.4 - 0.0
23/12:00pm 39.3 35.9 5.8 13 18.6 NNE 13 22 7 12 1014.8 - 0.0
23/11:30am 39.2 37.0 7.8 15 18.0 W 9 24 5 13 1015.1 - 0.0
23/11:00am 37.6 34.6 7.5 16 17.0 N 13 19 7 10 1015.5 - 0.0
23/10:30am 37.1 35.0 9.6 19 16.0 WNW 11 17 6 9 1015.7 - 0.0
23/10:00am 36.5 34.2 10.6 21 15.3 WNW 13 20 7 11 1015.8 - 0.0
23/09:30am 35.3 32.8 11.0 23 14.4 NW 15 22 8 12 1015.7 - 0.0
23/09:00am 34.0 31.5 11.2 25 13.4 NW 15 22 8 12 1015.6 - 0.0
23/08:30am 31.9 29.9 10.0 26 12.6 NW 11 15 6 8 1015.4 - 0.0
23/08:00am 29.7 27.8 7.6 25 12.1 N 7 11 4 6 1015.2 - 0.0
23/07:30am 27.7 25.2 4.7 23 11.8 N 7 9 4 5 1014.9 - 0.0
23/07:00am 25.1 22.5 3.1 24 10.8 NNE 6 7 3 4 1014.4 - 0.0
23/06:30am 23.6 20.4 3.0 26 10.0 NNE 9 9 5 5 1014.0 - 0.0
23/06:00am 23.0 19.9 1.4 24 10.1 ENE 7 9 4 5 1013.7 - 0.0
23/05:30am 24.1 21.3 2.3 24 10.5 E 6 7 3 4 1013.4 - 0.0
23/05:00am 24.3 21.2 1.2 22 10.9 E 7 9 4 5 1013.0 - 0.0
23/04:30am 25.2 23.2 0.0 19 11.7 CALM 0 0 0 0 1012.7 - 0.0
23/04:00am 26.0 22.8 0.6 19 12.0 NNE 7 9 4 5 1012.6 - 0.0
23/03:30am 27.1 23.4 0.0 17 12.7 NNE 9 11 5 6 1012.4 - 0.0
23/03:00am 27.8 23.3 -0.3 16 13.2 ENE 13 15 7 8 1012.0 - 0.0
23/02:30am 28.2 23.7 0.0 16 13.4 E 13 17 7 9 1012.0 - 0.0
23/02:00am 27.8 23.7 -0.3 16 13.2 E 11 13 6 7 1012.1 - 0.0
23/01:30am 28.0 23.9 -0.1 16 13.3 E 11 13 6 7 1012.3 - 0.0
23/01:00am 28.0 23.9 -0.1 16 13.3 E 11 11 6 6 1012.6 - 0.0
23/12:30am 28.2 24.5 0.0 16 13.4 E 9 11 5 6 1012.8 - 0.0
23/12:00am 29.0 25.3 -0.2 15 13.9 ESE 9 11 5 6 1013.3 - 0.0
 
Date/Time
EST
Temp
°C
App
Temp
°C
Dew
Point
°C
Rel
Hum
%
Delta-T
°C
Wind Press
QNH
hPa
Press
MSL
hPa
Rain since
9am
mm
Dir  Spd
km/h
Gust
km/h
Spd
kts
Gust
kts
22/11:30pm 29.3 25.2 0.0 15 14.0 ESE 11 11 6 6 1013.4 - 0.0
22/11:00pm 29.5 25.5 0.2 15 14.1 E 11 13 6 7 1013.2 - 0.0
22/10:30pm 30.4 26.7 -0.1 14 14.7 E 9 11 5 6 1013.2 - 0.0
22/10:00pm 30.9 26.9 0.3 14 14.9 E 11 13 6 7 1013.1 - 0.0
22/09:30pm 31.6 27.9 -0.1 13 15.4 E 9 11 5 6 1012.9 - 0.0
22/09:00pm 31.5 27.4 -0.2 13 15.3 E 11 11 6 6 1012.5 - 0.0
22/08:30pm 32.0 28.3 0.2 13 15.5 E 9 11 5 6 1012.3 - 0.0
22/08:00pm 33.4 29.3 0.1 12 16.4 E 11 11 6 6 1012.0 - 0.0
22/07:30pm 35.3 32.2 0.4 11 17.5 ESE 6 7 3 4 1011.7 - 0.0
22/07:00pm 36.5 33.2 0.0 10 18.3 E 7 9 4 5 1011.3 - 0.0
22/06:30pm 37.5 34.9 0.7 10 18.8 ENE 4 7 2 4 1011.2 - 0.0
22/06:00pm 38.0 34.3 -0.3 9 19.3 ENE 9 15 5 8 1010.9 - 0.0
22/05:30pm 38.2 34.5 -0.2 9 19.4 NNE 9 13 5 7 1010.8 - 0.0
22/05:00pm 38.3 34.2 -0.1 9 19.4 ESE 11 15 6 8 1010.6 - 0.0
22/04:30pm 38.6 34.9 0.1 9 19.6 ESE 9 15 5 8 1010.8 - 0.0
22/04:00pm 38.4 34.7 0.0 9 19.5 S 9 13 5 7 1010.9 - 0.0
22/03:30pm 38.9 35.3 0.3 9 19.7 WNW 9 15 5 8 1011.0 - 0.0
22/03:00pm 38.1 34.4 -0.3 9 19.4 N 9 19 5 10 1011.4 1010.3 0.0
22/02:30pm 37.7 34.1 0.9 10 18.8 ENE 9 22 5 12 1011.7 - 0.0
22/02:00pm 37.8 33.9 1.0 10 18.9 N 11 22 6 12 1012.2 - 0.0
22/01:30pm 37.5 32.4 0.7 10 18.8 NW 17 22 9 12 1012.5 - 0.0
22/01:00pm 36.7 32.6 0.1 10 18.4 SSW 11 15 6 8 1013.0 - 0.0
22/12:30pm 36.7 32.5 1.5 11 18.1 NW 13 19 7 10 1013.6 - 0.0
22/12:00pm 37.6 33.5 2.1 11 18.5 NNE 13 24 7 13 1014.1 - 0.0
22/11:30am 35.6 30.3 1.8 12 17.3 N 19 35 10 19 1014.4 - 0.0
22/11:00am 35.0 29.4 1.4 12 17.1 N 20 32 11 17 1014.7 - 0.0
22/10:30am 34.6 28.4 2.2 13 16.6 N 24 33 13 18 1015.1 - 0.0
22/10:00am 33.5 27.5 1.3 13 16.2 NNE 22 30 12 16 1015.2 - 0.0
22/09:30am 32.5 27.0 1.6 14 15.5 NNE 20 30 11 16 1015.3 - 0.0
22/09:00am 30.9 24.6 1.3 15 14.6 NNE 24 32 13 17 1015.2 1014.2 0.0
22/08:30am 29.5 23.7 0.2 15 14.1 NNE 20 28 11 15 1015.1 - 0.0
22/08:00am 27.7 22.0 -0.4 16 13.2 NNE 19 26 10 14 1015.0 - 0.0
22/07:30am 25.7 21.2 -0.4 18 12.1 NNE 13 19 7 10 1014.9 - 0.0
22/07:00am 24.0 19.9 -0.3 20 11.1 NE 11 13 6 7 1014.7 - 0.0
22/06:30am 22.9 18.7 -0.6 21 10.6 ENE 11 13 6 7 1014.4 - 0.0
22/06:00am 23.2 18.6 -1.0 20 10.8 ENE 13 17 7 9 1014.2 - 0.0
22/05:30am 23.4 19.6 -0.8 20 10.9 ENE 9 11 5 6 1013.9 - 0.0
22/05:00am 24.2 20.0 -0.9 19 11.4 ENE 11 15 6 8 1013.6 - 0.0
22/04:30am 24.1 19.5 -0.9 19 11.3 NE 13 17 7 9 1013.5 - 0.0
22/04:00am 23.9 19.7 -1.1 19 11.2 NE 11 19 6 10 1013.3 - 0.0
22/03:30am 23.5 19.6 -1.4 19 11.1 ENE 9 11 5 6 1013.2 - 0.0
22/03:00am 24.7 20.3 -2.8 16 12.1 NE 11 15 6 8 1013.2 - 0.0
22/02:30am 25.6 20.8 -2.9 15 12.6 ENE 13 15 7 8 1013.2 - 0.0
22/02:00am 26.3 21.1 -2.4 15 12.8 ENE 15 19 8 10 1013.2 - 0.0
22/01:30am 25.5 20.8 -2.1 16 12.3 ENE 13 17 7 9 1013.2 - 0.0
22/01:00am 25.0 20.2 -2.5 16 12.2 ENE 13 15 7 8 1013.6 - 0.0
22/12:30am 24.1 20.2 -1.7 18 11.5 ENE 9 11 5 6 1013.9 - 0.0
22/12:00am 24.7 20.5 -1.2 18 11.7 E 11 11 6 6 1013.8 - 0.0
 
Date/Time
EST
Temp
°C
App
Temp
°C
Dew
Point
°C
Rel
Hum
%
Delta-T
°C
Wind Press
QNH
hPa
Press
MSL
hPa
Rain since
9am
mm
Dir  Spd
km/h
Gust
km/h
Spd
kts
Gust
kts
21/11:30pm 25.1 21.2 -1.6 17 12.0 E 9 9 5 5 1014.0 - 0.0
21/11:00pm 26.1 22.4 -2.5 15 12.8 E 7 9 4 5 1014.2 - 0.0
21/10:30pm 27.4 23.5 -1.5 15 13.3 E 9 11 5 6 1014.6 - 0.0
21/10:00pm 27.6 24.1 -1.3 15 13.3 ESE 7 9 4 5 1014.7 - 0.0
21/09:30pm 28.0 24.3 -0.1 16 13.3 ESE 9 11 5 6 1014.5 - 0.0
21/09:00pm 27.8 24.4 -2.1 14 13.6 ENE 6 7 3 4 1014.3 - 0.0
21/08:30pm 29.3 25.7 -1.9 13 14.4 ENE 7 9 4 5 1014.3 - 0.0
21/08:00pm 30.6 27.2 -2.0 12 15.2 SE 6 6 3 3 1013.9 - 0.0
21/07:30pm 32.4 29.0 -1.8 11 16.2 SSE 6 9 3 5 1013.7 - 0.0
21/07:00pm 33.0 29.7 -1.4 11 16.5 ESE 6 7 3 4 1013.2 - 0.0
21/06:30pm 33.9 29.2 -2.0 10 17.1 ESE 13 17 7 9 1012.9 - 0.0
21/06:00pm 34.0 29.7 -1.9 10 17.2 SE 11 17 6 9 1012.9 - 0.0
21/05:30pm 34.4 30.1 -1.6 10 17.3 E 11 17 6 9 1012.8 - 0.0
21/05:00pm 34.6 30.3 -1.4 10 17.4 E 11 17 6 9 1012.9 - 0.0
21/04:30pm 34.3 29.8 -3.1 9 17.6 ESE 11 19 6 10 1012.9 - 0.0
21/04:00pm 34.9 31.4 -2.6 9 17.8 WNW 6 13 3 7 1013.0 - 0.0
21/03:30pm 33.9 28.6 -3.4 9 17.4 S 15 20 8 11 1013.3 - 0.0
21/03:00pm 34.5 30.8 -2.9 9 17.7 SW 7 15 4 8 1013.7 1012.7 0.0
21/02:30pm 33.4 29.0 -2.3 10 16.9 N 11 19 6 10 1014.1 - 0.0
21/02:00pm 33.8 30.2 -2.0 10 17.1 SW 7 15 4 8 1014.5 - 0.0
21/01:30pm 33.8 29.6 -0.7 11 16.8 NNE 11 17 6 9 1014.9 - 0.0
21/01:00pm 32.8 28.9 -1.5 11 16.4 NE 9 17 5 9 1015.2 - 0.0
21/12:30pm 31.9 28.1 -1.0 12 15.7 ENE 9 17 5 9 1015.7 - 0.0
21/12:00pm 31.2 26.5 -1.5 12 15.4 ENE 13 19 7 10 1016.2 - 0.0
21/11:30am 30.7 25.8 -0.8 13 15.0 E 15 26 8 14 1016.6 - 0.0

Other Formats:

Comma delimited format used in spreadsheet applications
http://www.bom.gov.au/fwo/IDQ60801/IDQ60801.95492.axf

JavaScript Object Notation format (JSON) in row-major order
http://www.bom.gov.au/fwo/IDQ60801/IDQ60801.95492.json